createdAt,value
2019-01-23T00:00:58.661Z,27.33
2019-01-23T00:03:28.421Z,27.90
2019-01-23T00:05:57.803Z,30.87
2019-01-23T00:08:27.272Z,28.33
2019-01-23T00:10:57.018Z,28.43
2019-01-23T00:13:26.480Z,27.70
2019-01-23T00:15:55.851Z,29.30
2019-01-23T00:18:25.661Z,26.83
2019-01-23T00:20:55.017Z,27.70
2019-01-23T00:23:24.760Z,28.60
2019-01-23T00:25:54.213Z,28.13
2019-01-23T00:28:23.668Z,28.73
2019-01-23T00:30:53.031Z,27.27
2019-01-23T00:33:22.421Z,28.57
2019-01-23T00:35:51.788Z,27.03
2019-01-23T00:38:21.468Z,29.30
2019-01-23T00:40:50.874Z,28.30
2019-01-23T00:43:20.301Z,26.00
2019-01-23T00:45:49.688Z,28.47
2019-01-23T00:48:19.419Z,26.77
2019-01-23T00:50:49.281Z,26.90
2019-01-23T00:53:18.668Z,27.20
2019-01-23T00:55:48.074Z,28.30
2019-01-23T00:58:17.437Z,27.40
2019-01-23T01:00:46.889Z,27.70
2019-01-23T01:03:16.331Z,28.13
2019-01-23T01:05:45.785Z,24.80
2019-01-23T01:08:15.233Z,28.00
2019-01-23T01:10:44.964Z,26.50
2019-01-23T01:13:14.330Z,27.17
2019-01-23T01:15:43.820Z,27.50
2019-01-23T01:18:13.176Z,26.77
2019-01-23T01:20:42.581Z,25.83
2019-01-23T01:23:12.260Z,26.67
2019-01-23T01:25:42.016Z,26.73
2019-01-23T01:28:11.384Z,25.67
2019-01-23T01:30:40.861Z,25.93
2019-01-23T01:33:10.301Z,27.57
2019-01-23T01:35:39.759Z,25.23
2019-01-23T01:38:09.125Z,27.03
2019-01-23T01:40:38.512Z,25.17
2019-01-23T01:43:07.881Z,27.03
2019-01-23T01:45:37.343Z,25.47
2019-01-23T01:48:07.143Z,25.00
2019-01-23T01:50:36.637Z,23.17
2019-01-23T01:53:06.112Z,24.20
2019-01-23T01:55:35.559Z,24.53
2019-01-23T01:58:05.114Z,24.20
2019-01-23T02:00:34.875Z,24.20
2019-01-23T02:03:04.438Z,23.93
2019-01-23T02:05:33.872Z,24.83
2019-01-23T02:08:03.339Z,23.77
2019-01-23T02:10:32.776Z,23.83
2019-01-23T02:13:02.240Z,22.33
2019-01-23T02:15:31.929Z,23.47
2019-01-23T02:18:01.321Z,21.97
2019-01-23T02:20:30.688Z,22.63
2019-01-23T02:23:00.525Z,22.40
2019-01-23T02:25:29.989Z,23.07
2019-01-23T02:27:59.382Z,21.67
2019-01-23T02:30:28.813Z,21.77
2019-01-23T02:32:58.221Z,21.87
2019-01-23T02:35:27.669Z,22.30
2019-01-23T02:37:57.124Z,20.87
2019-01-23T02:40:26.855Z,21.70
2019-01-23T02:42:56.245Z,21.53
2019-01-23T02:45:25.688Z,21.50
2019-01-23T02:47:55.162Z,22.23
2019-01-23T02:50:24.618Z,21.00
2019-01-23T02:52:54.285Z,21.83
2019-01-23T02:55:23.659Z,23.07
2019-01-23T02:57:53.889Z,20.93
2019-01-23T03:00:23.252Z,21.87
2019-01-23T03:02:52.736Z,21.70
2019-01-23T03:05:22.561Z,22.00
2019-01-23T03:07:51.934Z,22.13
2019-01-23T03:10:22.204Z,21.57
2019-01-23T03:12:51.580Z,22.70
2019-01-23T03:15:21.114Z,22.73
2019-01-23T03:17:50.549Z,22.40
2019-01-23T03:20:20.546Z,22.13
2019-01-23T03:22:50.294Z,22.07
2019-01-23T03:25:19.691Z,22.20
2019-01-23T03:27:49.281Z,22.53
2019-01-23T03:30:20.754Z,22.43
2019-01-23T03:32:50.430Z,22.47
2019-01-23T03:35:20.177Z,23.00
2019-01-23T03:37:49.603Z,21.30
2019-01-23T03:40:20.820Z,22.03
2019-01-23T03:42:50.186Z,22.47
2019-01-23T03:45:19.777Z,23.87
2019-01-23T03:47:49.240Z,23.03
2019-01-23T03:50:20.132Z,21.53
2019-01-23T03:52:49.894Z,22.87
2019-01-23T03:55:19.832Z,22.80
2019-01-23T03:57:49.219Z,21.23
2019-01-23T04:00:20.553Z,21.73
2019-01-23T04:02:51.195Z,23.50
2019-01-23T04:05:20.567Z,22.00
2019-01-23T04:07:50.066Z,22.33
2019-01-23T04:10:20.220Z,22.83
2019-01-23T04:12:50.432Z,21.93
2019-01-23T04:15:19.889Z,22.57
2019-01-23T04:17:49.278Z,21.93
2019-01-23T04:20:20.987Z,23.13
2019-01-23T04:22:50.457Z,23.37
2019-01-23T04:25:20.316Z,23.17
2019-01-23T04:27:49.711Z,23.30
2019-01-23T04:30:28.296Z,24.57
2019-01-23T04:32:58.048Z,23.80
2019-01-23T04:35:27.416Z,23.87
2019-01-23T04:37:57.213Z,24.07
2019-01-23T04:40:26.920Z,23.40
2019-01-23T04:42:56.306Z,25.40
2019-01-23T04:45:25.812Z,24.53
2019-01-23T04:47:55.497Z,24.20
2019-01-23T04:50:24.937Z,23.83
2019-01-23T04:53:02.849Z,23.50
2019-01-23T04:55:32.831Z,23.33
2019-01-23T04:58:02.278Z,24.40
2019-01-23T05:00:32.075Z,23.93
2019-01-23T05:03:01.800Z,23.83
2019-01-23T05:05:31.197Z,23.57
2019-01-23T05:08:01.056Z,22.00
2019-01-23T05:10:30.771Z,23.10
2019-01-23T05:13:00.211Z,22.80
2019-01-23T05:15:30.089Z,23.70
2019-01-23T05:18:00.021Z,24.57
2019-01-23T05:20:29.494Z,25.20
2019-01-23T05:22:59.094Z,24.40
2019-01-23T05:25:28.485Z,24.30
2019-01-23T05:27:57.940Z,24.10
2019-01-23T05:30:27.840Z,24.53
2019-01-23T05:32:57.213Z,24.17
2019-01-23T05:35:27.065Z,24.77
2019-01-23T05:37:56.505Z,23.23
2019-01-23T05:40:26.270Z,25.27
2019-01-23T05:42:55.713Z,25.13
2019-01-23T05:45:25.590Z,25.23
2019-01-23T05:47:55.123Z,23.77
2019-01-23T05:50:24.854Z,24.60
2019-01-23T05:52:54.835Z,24.47
2019-01-23T05:55:24.233Z,25.23
2019-01-23T05:57:53.942Z,24.77
2019-01-23T06:00:23.906Z,25.10
2019-01-23T06:02:53.427Z,24.20
2019-01-23T06:05:23.076Z,24.70
2019-01-23T06:07:52.882Z,25.97
2019-01-23T06:10:22.688Z,24.03
2019-01-23T06:12:52.081Z,25.07
2019-01-23T06:15:21.899Z,25.87
2019-01-23T06:17:51.343Z,24.47
2019-01-23T06:20:20.953Z,25.77
2019-01-23T06:22:50.432Z,25.87
2019-01-23T06:25:20.147Z,26.33
2019-01-23T06:27:49.613Z,25.40
2019-01-23T06:30:21.409Z,26.93
2019-01-23T06:32:51.105Z,27.80
2019-01-23T06:35:20.638Z,26.27
2019-01-23T06:37:50.112Z,26.90
2019-01-23T06:40:20.037Z,27.40
2019-01-23T06:42:49.512Z,27.37
2019-01-23T06:45:19.489Z,27.07
2019-01-23T06:47:49.840Z,26.77
2019-01-23T06:50:20.703Z,26.03
2019-01-23T06:52:50.833Z,27.03
2019-01-23T06:55:20.422Z,25.33
2019-01-23T06:57:49.906Z,27.93
2019-01-23T07:00:24.766Z,25.50
2019-01-23T07:02:54.698Z,25.60
2019-01-23T07:05:24.816Z,24.77
2019-01-23T07:07:54.336Z,26.23
2019-01-23T07:10:26.014Z,26.30
2019-01-23T07:12:55.488Z,26.20
2019-01-23T07:15:24.870Z,25.47
2019-01-23T07:17:54.317Z,24.83
2019-01-23T07:20:27.872Z,27.57
2019-01-23T07:22:57.306Z,25.10
2019-01-23T07:25:27.823Z,25.73
2019-01-23T07:27:57.284Z,25.00
2019-01-23T07:30:32.178Z,25.13
2019-01-23T07:33:01.969Z,24.23
2019-01-23T07:35:31.378Z,24.93
2019-01-23T07:38:00.834Z,25.17
2019-01-23T07:40:30.298Z,24.77
2019-01-23T07:43:00.099Z,24.07
2019-01-23T07:45:29.919Z,24.67
2019-01-23T07:47:59.312Z,24.90
2019-01-23T07:50:28.725Z,25.53
2019-01-23T07:52:58.336Z,24.43
2019-01-23T07:55:27.755Z,24.87
2019-01-23T07:57:57.216Z,25.27
2019-01-23T08:00:31.616Z,25.00
2019-01-23T08:02:58.644Z,24.60
2019-01-23T08:05:28.229Z,25.27
2019-01-23T08:07:57.661Z,24.83
2019-01-23T08:10:27.087Z,24.03
2019-01-23T08:12:56.563Z,23.93
2019-01-23T08:15:28.746Z,25.30
2019-01-23T08:17:58.141Z,23.23
2019-01-23T08:20:27.722Z,25.20
2019-01-23T08:22:57.409Z,25.07
2019-01-23T08:25:26.984Z,26.43
2019-01-23T08:27:56.570Z,24.90
2019-01-23T08:30:26.660Z,24.07
2019-01-23T08:32:56.197Z,24.57
2019-01-23T08:35:27.287Z,25.03
2019-01-23T08:37:56.921Z,24.57
2019-01-23T08:40:26.709Z,23.73
2019-01-23T08:42:56.339Z,24.73
2019-01-23T08:45:25.734Z,25.27
2019-01-23T08:47:55.113Z,24.63
2019-01-23T08:50:30.574Z,23.27
2019-01-23T08:53:00.043Z,23.67
2019-01-23T08:55:29.458Z,21.90
2019-01-23T08:57:59.186Z,24.17
2019-01-23T09:00:28.748Z,23.13
2019-01-23T09:02:58.331Z,23.77
2019-01-23T09:05:27.748Z,23.33
2019-01-23T09:07:57.566Z,22.50
2019-01-23T09:10:27.441Z,22.87
2019-01-23T09:12:56.850Z,21.37
2019-01-23T09:15:26.664Z,22.07
2019-01-23T09:17:56.060Z,21.77
2019-01-23T09:20:25.433Z,20.90
2019-01-23T09:22:54.831Z,22.07
2019-01-23T09:25:24.943Z,21.40
2019-01-23T09:27:54.637Z,22.03
2019-01-23T09:30:29.905Z,21.53
2019-01-23T09:33:29.850Z,21.97
2019-01-23T09:36:36.195Z,22.40
2019-01-23T09:39:50.689Z,22.73
2019-01-23T09:42:56.918Z,20.93
2019-01-23T09:46:25.485Z,20.37
2019-01-23T09:49:39.714Z,22.07
2019-01-23T09:52:45.397Z,20.27
2019-01-23T09:55:15.437Z,21.37
2019-01-23T09:57:48.118Z,21.00
2019-01-23T10:00:20.717Z,21.60
2019-01-23T10:02:50.091Z,22.40
2019-01-23T10:05:19.597Z,21.00
2019-01-23T10:07:49.047Z,22.80
2019-01-23T10:10:19.025Z,23.03
2019-01-23T10:12:48.489Z,21.27
2019-01-23T10:15:21.617Z,20.53
2019-01-23T10:17:51.024Z,21.00
2019-01-23T10:20:20.411Z,21.20
2019-01-23T10:22:49.805Z,22.77
2019-01-23T10:25:19.306Z,22.13
2019-01-23T10:27:49.273Z,23.23
2019-01-23T10:30:18.644Z,21.37
2019-01-23T10:32:48.040Z,21.37
2019-01-23T10:35:17.529Z,22.13
2019-01-23T10:37:47.027Z,22.03
2019-01-23T10:40:16.617Z,20.80
2019-01-23T10:42:46.177Z,20.83
2019-01-23T10:45:15.658Z,20.33
2019-01-23T10:47:46.130Z,21.27
2019-01-23T10:50:15.686Z,20.97
2019-01-23T10:52:45.358Z,20.43
2019-01-23T10:55:14.994Z,19.57
2019-01-23T10:57:44.561Z,19.77
2019-01-23T11:00:16.592Z,19.90
2019-01-23T11:02:45.975Z,19.17
2019-01-23T11:05:18.702Z,19.30
2019-01-23T11:07:48.091Z,19.53
2019-01-23T11:10:22.432Z,20.57
2019-01-23T11:12:51.866Z,17.73
2019-01-23T11:15:21.525Z,19.03
2019-01-23T11:17:51.153Z,18.87
2019-01-23T11:20:21.144Z,18.60
2019-01-23T11:22:50.577Z,19.23
2019-01-23T11:25:20.030Z,19.80
2019-01-23T11:27:49.572Z,19.60
2019-01-23T11:30:21.562Z,17.70
2019-01-23T11:32:51.095Z,18.63
2019-01-23T11:35:20.466Z,17.73
2019-01-23T11:37:50.262Z,18.10
2019-01-23T11:40:28.404Z,17.70
2019-01-23T11:42:57.969Z,18.07
2019-01-23T11:45:27.582Z,17.73
2019-01-23T11:47:57.067Z,18.20
2019-01-23T11:50:26.604Z,18.60
2019-01-23T11:52:56.146Z,18.37
2019-01-23T11:55:25.584Z,17.73
2019-01-23T11:57:54.977Z,19.03
2019-01-23T12:00:26.060Z,17.40
2019-01-23T12:02:55.529Z,18.47
2019-01-23T12:05:25.481Z,18.83
2019-01-23T12:07:54.966Z,19.00
2019-01-23T12:10:24.808Z,18.83
2019-01-23T12:12:54.600Z,19.30
2019-01-23T12:15:24.529Z,19.97
2019-01-23T12:17:54.010Z,19.13
2019-01-23T12:20:23.696Z,19.30
2019-01-23T12:22:53.461Z,19.30
2019-01-23T12:25:22.897Z,18.70
2019-01-23T12:27:52.280Z,19.13
2019-01-23T12:30:27.484Z,19.33
2019-01-23T12:32:56.949Z,19.00
2019-01-23T12:35:26.381Z,18.23
2019-01-23T12:37:56.104Z,19.07
2019-01-23T12:40:25.568Z,19.17
2019-01-23T12:42:55.048Z,19.43
2019-01-23T12:45:26.752Z,19.30
2019-01-23T12:47:56.619Z,19.00
2019-01-23T12:50:28.533Z,19.57
2019-01-23T12:52:57.913Z,18.33
2019-01-23T12:55:27.286Z,17.90
2019-01-23T12:57:57.132Z,18.27
2019-01-23T13:00:28.892Z,18.07
2019-01-23T13:02:58.902Z,17.97
2019-01-23T13:05:28.665Z,19.13
2019-01-23T13:07:58.344Z,18.80
2019-01-23T13:10:27.817Z,19.50
2019-01-23T13:12:57.364Z,20.07
2019-01-23T13:15:27.308Z,19.97
2019-01-23T13:17:56.913Z,19.47
2019-01-23T13:20:26.720Z,20.10
2019-01-23T13:22:56.535Z,19.43
2019-01-23T13:25:28.292Z,18.70
2019-01-23T13:28:00.079Z,19.40
2019-01-23T13:30:29.581Z,19.77
2019-01-23T13:32:59.009Z,19.13
2019-01-23T13:35:31.237Z,19.03
2019-01-23T13:38:01.244Z,18.97
2019-01-23T13:40:33.208Z,18.37
2019-01-23T13:43:02.801Z,17.40
2019-01-23T13:45:32.347Z,18.20
2019-01-23T13:48:01.780Z,18.70
2019-01-23T13:50:31.528Z,19.17
2019-01-23T13:53:00.893Z,19.10
2019-01-23T13:55:30.644Z,20.03
2019-01-23T13:58:00.091Z,20.43
2019-01-23T14:00:32.537Z,19.30
2019-01-23T14:03:02.025Z,20.67
2019-01-23T14:05:31.732Z,21.00
2019-01-23T14:08:01.094Z,20.10
2019-01-23T14:10:30.854Z,19.53
2019-01-23T14:13:00.318Z,21.30
2019-01-23T14:15:34.577Z,19.60
2019-01-23T14:18:05.381Z,19.90
2019-01-23T14:20:35.121Z,20.53
2019-01-23T14:23:05.250Z,20.17
2019-01-23T14:25:35.082Z,19.00
2019-01-23T14:28:04.789Z,20.47
2019-01-23T14:30:39.516Z,19.60
2019-01-23T14:33:08.900Z,20.07
2019-01-23T14:35:40.334Z,21.43
2019-01-23T14:38:09.813Z,20.47
2019-01-23T14:40:39.265Z,20.57
2019-01-23T14:43:08.732Z,19.87
2019-01-23T14:45:38.083Z,19.67
2019-01-23T14:48:07.528Z,21.00
2019-01-23T14:50:36.981Z,19.90
2019-01-23T14:53:06.437Z,20.30
2019-01-23T14:55:35.913Z,20.00
2019-01-23T14:58:05.604Z,20.33
2019-01-23T15:00:34.981Z,20.87
2019-01-23T15:03:04.462Z,20.33
2019-01-23T15:05:33.909Z,20.83
2019-01-23T15:08:03.366Z,20.53
2019-01-23T15:10:33.332Z,21.10
2019-01-23T15:13:03.536Z,20.37
2019-01-23T15:15:33.059Z,19.53
2019-01-23T15:18:02.545Z,20.90
2019-01-23T15:20:37.874Z,20.83
2019-01-23T15:23:08.014Z,21.37
2019-01-23T15:25:37.540Z,20.57
2019-01-23T15:28:06.963Z,21.17
2019-01-23T15:30:38.007Z,21.17
2019-01-23T15:33:07.388Z,21.90
2019-01-23T15:35:37.072Z,21.10
2019-01-23T15:38:06.465Z,20.97
2019-01-23T15:40:37.739Z,20.70
2019-01-23T15:43:07.250Z,20.67
2019-01-23T15:45:37.117Z,21.63
2019-01-23T15:48:06.579Z,20.53
2019-01-23T15:50:36.145Z,19.23
2019-01-23T15:53:05.778Z,22.57
2019-01-23T15:55:35.250Z,21.80
2019-01-23T15:58:04.616Z,21.83
2019-01-23T16:00:34.689Z,20.13
2019-01-23T16:03:04.047Z,20.37
2019-01-23T16:05:33.839Z,20.77
2019-01-23T16:08:03.305Z,21.73
2019-01-23T16:10:33.124Z,21.17
2019-01-23T16:13:03.407Z,20.53
2019-01-23T16:15:33.903Z,19.47
2019-01-23T16:18:03.620Z,21.10
2019-01-23T16:20:33.081Z,20.33
2019-01-23T16:23:02.621Z,21.00
2019-01-23T16:25:32.018Z,21.50
2019-01-23T16:28:01.543Z,20.10
2019-01-23T16:30:36.373Z,20.27
2019-01-23T16:33:06.089Z,20.47
2019-01-23T16:35:38.727Z,19.43
2019-01-23T16:38:08.548Z,20.97
2019-01-23T16:40:37.921Z,18.80
2019-01-23T16:43:07.815Z,19.47
2019-01-23T16:45:37.282Z,20.10
2019-01-23T16:48:06.812Z,18.90
2019-01-23T16:50:36.261Z,20.67
2019-01-23T16:53:06.086Z,18.83
2019-01-23T16:55:36.256Z,20.47
2019-01-23T16:58:06.840Z,19.23
2019-01-23T17:00:36.648Z,19.30
2019-01-23T17:03:06.648Z,19.43
2019-01-23T17:05:36.341Z,17.97
2019-01-23T17:08:07.832Z,19.43
2019-01-23T17:10:37.209Z,18.33
2019-01-23T17:13:06.730Z,17.97
2019-01-23T17:15:36.177Z,18.87
2019-01-23T17:18:06.256Z,18.50
2019-01-23T17:20:45.202Z,18.97
2019-01-23T17:23:14.758Z,19.10
2019-01-23T17:25:44.298Z,18.73
2019-01-23T17:28:15.000Z,17.77
2019-01-23T17:30:55.908Z,17.70
2019-01-23T17:33:25.626Z,17.93
2019-01-23T17:35:55.430Z,17.57
2019-01-23T17:38:25.105Z,18.23
2019-01-23T17:40:54.577Z,17.80
2019-01-23T17:43:24.608Z,19.20
2019-01-23T17:45:54.001Z,18.17
2019-01-23T17:48:23.654Z,18.93
2019-01-23T17:50:53.129Z,18.97
2019-01-23T17:53:22.497Z,18.83
2019-01-23T17:55:52.038Z,18.77
2019-01-23T17:58:24.492Z,18.83
2019-01-23T18:00:55.977Z,18.83
2019-01-23T18:03:25.804Z,19.63
2019-01-23T18:05:55.267Z,18.07
2019-01-23T18:08:24.642Z,18.87
2019-01-23T18:10:54.051Z,18.63
2019-01-23T18:13:23.585Z,18.33
2019-01-23T18:15:53.260Z,18.93
2019-01-23T18:18:22.943Z,19.57
2019-01-23T18:20:52.404Z,18.63
2019-01-23T18:23:22.500Z,18.53
2019-01-23T18:25:52.056Z,20.50
2019-01-23T18:28:21.804Z,21.73
2019-01-23T18:31:17.010Z,20.93
2019-01-23T18:34:17.178Z,19.23
2019-01-23T18:36:58.048Z,19.43
2019-01-23T18:40:04.096Z,19.93
2019-01-23T18:43:20.404Z,20.27
2019-01-23T18:46:26.237Z,20.00
2019-01-23T18:49:34.661Z,19.23
2019-01-23T18:52:12.477Z,19.87
2019-01-23T18:54:42.021Z,19.90
2019-01-23T18:57:14.724Z,20.43
2019-01-23T18:59:44.449Z,19.17
2019-01-23T19:02:14.264Z,20.47
2019-01-23T19:04:44.178Z,19.43
2019-01-23T19:07:14.073Z,20.20
2019-01-23T19:09:43.729Z,20.70
2019-01-23T19:12:13.185Z,20.17
2019-01-23T19:14:42.850Z,18.33
2019-01-23T19:17:12.228Z,21.73
2019-01-23T19:19:42.001Z,21.00
2019-01-23T19:22:11.481Z,20.97
2019-01-23T19:24:40.933Z,20.33
2019-01-23T19:27:11.271Z,20.23
2019-01-23T19:29:41.481Z,20.33
2019-01-23T19:32:10.947Z,21.63
2019-01-23T19:34:40.381Z,21.90
2019-01-23T19:37:09.975Z,20.93
2019-01-23T19:39:39.508Z,22.33
2019-01-23T19:42:09.319Z,22.23
2019-01-23T19:44:38.753Z,22.47
2019-01-23T19:47:08.565Z,23.00
2019-01-23T19:49:38.714Z,22.97
2019-01-23T19:52:08.465Z,24.47
2019-01-23T19:54:37.905Z,24.60
2019-01-23T19:57:07.297Z,25.43
2019-01-23T19:59:36.766Z,23.67
2019-01-23T20:02:06.374Z,23.87
2019-01-23T20:04:36.293Z,24.33
2019-01-23T20:07:05.765Z,23.20
2019-01-23T20:09:35.207Z,25.37
2019-01-23T20:12:05.126Z,25.43
2019-01-23T20:14:34.570Z,26.47
2019-01-23T20:17:03.990Z,27.83
2019-01-23T20:19:33.366Z,26.23
2019-01-23T20:22:02.758Z,26.13
2019-01-23T20:24:32.246Z,26.57
2019-01-23T20:27:01.697Z,25.13
2019-01-23T20:29:31.148Z,27.57
2019-01-23T20:32:00.522Z,25.73
2019-01-23T20:34:30.004Z,26.53
2019-01-23T20:36:59.772Z,26.70
2019-01-23T20:39:29.361Z,26.77
2019-01-23T20:41:58.813Z,27.47
2019-01-23T20:44:28.902Z,27.20
2019-01-23T20:46:58.719Z,25.70
2019-01-23T20:49:28.216Z,26.87
2019-01-23T20:51:58.025Z,26.37
2019-01-23T20:54:28.010Z,27.77
2019-01-23T20:56:57.409Z,27.00
2019-01-23T20:59:27.564Z,29.10
2019-01-23T21:01:57.126Z,28.00
2019-01-23T21:04:26.567Z,27.90
2019-01-23T21:06:56.392Z,25.03
2019-01-23T21:09:26.104Z,25.87
2019-01-23T21:11:55.649Z,26.77
2019-01-23T21:14:25.107Z,27.03
2019-01-23T21:16:54.618Z,26.40
2019-01-23T21:19:24.140Z,27.23
2019-01-23T21:21:53.836Z,27.73
2019-01-23T21:24:26.613Z,29.47
2019-01-23T21:26:56.746Z,26.57
2019-01-23T21:29:26.858Z,27.43
2019-01-23T21:31:56.334Z,25.63
2019-01-23T21:34:26.036Z,26.93
2019-01-23T21:36:55.430Z,26.03
2019-01-23T21:39:24.892Z,27.10
2019-01-23T21:41:54.665Z,27.70
2019-01-23T21:44:24.117Z,25.37
2019-01-23T21:46:53.494Z,25.80
2019-01-23T21:49:22.993Z,27.53
2019-01-23T21:51:52.425Z,26.93
2019-01-23T21:54:21.889Z,26.80
2019-01-23T21:56:51.327Z,25.13
2019-01-23T21:59:20.726Z,26.67
2019-01-23T22:01:50.177Z,25.73
2019-01-23T22:04:19.661Z,25.70
2019-01-23T22:06:49.140Z,24.73
2019-01-23T22:09:18.525Z,25.70
2019-01-23T22:11:47.898Z,26.63
2019-01-23T22:14:17.362Z,25.37
2019-01-23T22:16:46.803Z,26.57
2019-01-23T22:19:16.278Z,24.93
2019-01-23T22:21:45.661Z,25.20
2019-01-23T22:24:15.120Z,26.13
2019-01-23T22:26:44.490Z,25.40
2019-01-23T22:29:14.278Z,25.93
2019-01-23T22:31:43.736Z,24.83
2019-01-23T22:34:13.596Z,26.27
2019-01-23T22:36:43.576Z,25.33
2019-01-23T22:39:13.069Z,25.00
2019-01-23T22:41:42.533Z,24.03
2019-01-23T22:44:12.226Z,23.93
2019-01-23T22:46:41.613Z,23.60
2019-01-23T22:49:10.982Z,25.30
2019-01-23T22:51:40.483Z,24.50
2019-01-23T22:54:09.911Z,24.57
2019-01-23T22:56:39.377Z,24.43
2019-01-23T22:59:08.864Z,24.23
2019-01-23T23:01:38.329Z,23.67
2019-01-23T23:04:07.698Z,23.13
2019-01-23T23:06:37.165Z,23.50
2019-01-23T23:09:10.081Z,25.33
2019-01-23T23:11:39.581Z,23.63
2019-01-23T23:14:09.393Z,25.07
2019-01-23T23:16:38.857Z,25.17
2019-01-23T23:19:08.226Z,23.77
2019-01-23T23:21:37.625Z,24.27
2019-01-23T23:24:07.100Z,23.93
2019-01-23T23:26:36.588Z,24.67
2019-01-23T23:29:06.258Z,23.60
2019-01-23T23:31:35.722Z,24.07
2019-01-23T23:34:09.926Z,25.60
2019-01-23T23:36:36.695Z,26.20
2019-01-23T23:39:09.307Z,24.10
2019-01-23T23:41:38.770Z,25.73
2019-01-23T23:44:08.475Z,25.47
2019-01-23T23:46:38.263Z,26.10
2019-01-23T23:49:08.096Z,25.40
2019-01-23T23:51:37.882Z,24.77
2019-01-23T23:54:07.423Z,26.60
2019-01-23T23:56:36.793Z,25.03
2019-01-23T23:59:06.525Z,25.77
